SBMO/MCZ METAR and TAF weather

Enter ICAO airport designator
Station Type Date Time Source
SBMO METAR 2018/12/12 07:00 UTC NOAA

SBMO 120700Z 15003KT 9999 FEW020 24/21 Q1016


Station Type Date Time Source
SBMO Decoded METAR 2018/12/12 07:00 UTC NOAA

Maceio Aeroporto , Brazil (SBMO) 09-31S 035-47W 115M
Dec 12, 2018 - 02:00 AM EST / 2018.12.12 0700 UTC
Wind: from the SSE (150 degrees) at 3 MPH (3 KT):0
Visibility: greater than 7 mile(s):0
Sky conditions: mostly clear
Temperature: 75 F (24 C)
Dew Point: 69 F (21 C)
Relative Humidity: 83%
Pressure (altimeter): 30.00 in. Hg (1016 hPa)
ob: SBMO 120700Z 15003KT 9999 FEW020 24/21 Q1016
cycle: 7

Station Type Date Time Source
SBMO TAF 2018/12/12 06:27 UTC NOAA

TAF TAF SBMO 120100Z 1206/1306 12006KT 8000 SCT015 TN23/1208Z TX29/1214Z
BECMG 1210/1212 12015KT SCT010 BKN017 PROB30
TEMPO 1212/1213 5000 RA
BECMG 1215/1217 SCT020
BECMG 1222/1223 12007KT
RMK PEU


Example: see airport list